createdAt,value
2019-02-28T00:01:48.833Z,39.30
2019-02-28T00:04:17.794Z,40.30
2019-02-28T00:06:46.840Z,40.83
2019-02-28T00:09:16.216Z,39.90
2019-02-28T00:11:45.227Z,40.63
2019-02-28T00:14:16.316Z,38.87
2019-02-28T00:16:45.255Z,39.77
2019-02-28T00:19:17.557Z,39.93
2019-02-28T00:21:46.906Z,40.97
2019-02-28T00:24:16.015Z,40.70
2019-02-28T00:26:47.533Z,41.40
2019-02-28T00:29:15.945Z,41.87
2019-02-28T00:31:49.453Z,41.57
2019-02-28T00:34:17.261Z,43.17
2019-02-28T00:36:47.086Z,43.20
2019-02-28T00:39:16.985Z,43.17
2019-02-28T00:41:45.994Z,42.67
2019-02-28T00:44:14.837Z,43.53
2019-02-28T00:46:45.884Z,44.63
2019-02-28T00:49:14.788Z,44.60
2019-02-28T00:51:43.699Z,43.63
2019-02-28T00:54:12.784Z,43.17
2019-02-28T00:56:41.690Z,45.10
2019-02-28T00:59:12.933Z,44.43
2019-02-28T01:01:45.882Z,42.83
2019-02-28T01:04:14.170Z,43.60
2019-02-28T01:06:43.208Z,43.43
2019-02-28T01:09:12.171Z,42.27
2019-02-28T01:11:44.721Z,43.43
2019-02-28T01:14:12.543Z,42.87
2019-02-28T01:16:43.094Z,42.97
2019-02-28T01:19:12.053Z,40.47
2019-02-28T01:21:41.041Z,40.07
2019-02-28T01:26:46.625Z,39.93
2019-02-28T01:29:15.631Z,42.27
2019-02-28T01:31:44.873Z,45.57
2019-02-28T01:34:17.375Z,46.63
2019-02-28T01:36:48.682Z,46.97
2019-02-28T01:39:18.103Z,48.37
2019-02-28T01:41:47.602Z,46.93
2019-02-28T01:44:17.262Z,51.60
2019-02-28T01:46:48.514Z,51.87
2019-02-28T01:49:17.202Z,52.20
2019-02-28T01:51:46.101Z,53.90
2019-02-28T01:54:15.695Z,53.40
2019-02-28T01:56:45.575Z,53.77
2019-02-28T01:59:15.503Z,55.03
2019-02-28T02:01:46.542Z,54.23
2019-02-28T02:04:15.865Z,53.57
2019-02-28T02:06:45.065Z,53.33
2019-02-28T02:09:14.037Z,53.53
2019-02-28T02:11:44.316Z,54.50
2019-02-28T02:14:13.642Z,55.83
2019-02-28T02:16:42.709Z,57.47
2019-02-28T02:21:46.961Z,60.67
2019-02-28T02:24:15.862Z,59.37
2019-02-28T02:26:45.144Z,62.53
2019-02-28T02:29:14.888Z,60.17
2019-02-28T02:31:44.869Z,57.20
2019-02-28T02:34:14.207Z,57.33
2019-02-28T02:36:43.117Z,56.47
2019-02-28T02:41:46.844Z,57.37
2019-02-28T02:44:17.896Z,57.53
2019-02-28T02:46:46.808Z,58.27
2019-02-28T02:49:19.905Z,57.43
2019-02-28T02:51:50.541Z,58.03
2019-02-28T02:54:19.956Z,58.67
2019-02-28T02:56:48.467Z,59.33
2019-02-28T02:59:17.846Z,61.03
2019-02-28T03:01:46.768Z,60.77
2019-02-28T03:04:21.426Z,62.00
2019-02-28T03:06:46.867Z,63.60
2019-02-28T03:09:17.863Z,62.47
2019-02-28T03:11:46.828Z,67.47
2019-02-28T03:14:17.284Z,66.77
2019-02-28T03:16:48.249Z,64.90
2019-02-28T03:19:17.142Z,66.23
2019-02-28T03:21:51.631Z,66.80
2019-02-28T03:24:18.909Z,63.60
2019-02-28T03:26:48.201Z,69.13
2019-02-28T03:29:17.290Z,67.00
2019-02-28T03:31:55.032Z,67.67
2019-02-28T03:34:17.111Z,74.57
2019-02-28T03:36:55.501Z,72.47
2019-02-28T03:39:16.766Z,72.90
2019-02-28T03:41:49.069Z,72.30
2019-02-28T03:44:21.626Z,69.93
2019-02-28T03:46:49.168Z,71.53
2019-02-28T03:49:18.406Z,69.97
2019-02-28T03:51:47.310Z,72.63
2019-02-28T03:54:16.530Z,72.77
2019-02-28T03:56:51.065Z,70.63
2019-02-28T03:59:18.960Z,73.03
2019-02-28T04:01:49.188Z,68.10
2019-02-28T04:04:21.218Z,71.80
2019-02-28T04:06:50.685Z,73.47
2019-02-28T04:09:19.696Z,75.57
2019-02-28T04:11:49.170Z,78.67
2019-02-28T04:14:18.133Z,76.57
2019-02-28T04:16:52.752Z,74.63
2019-02-28T04:19:22.640Z,76.37
2019-02-28T04:21:50.474Z,77.43
2019-02-28T04:24:23.090Z,80.13
2019-02-28T04:26:52.005Z,81.57
2019-02-28T04:29:20.927Z,78.47
2019-02-28T04:31:51.425Z,75.87
2019-02-28T04:34:20.485Z,80.33
2019-02-28T04:36:50.056Z,76.93
2019-02-28T04:39:19.226Z,76.17
2019-02-28T04:41:48.050Z,78.37
2019-02-28T04:44:18.272Z,76.93
2019-02-28T04:46:48.240Z,79.33
2019-02-28T04:49:21.842Z,79.20
2019-02-28T04:51:47.796Z,76.07
2019-02-28T04:54:17.103Z,79.00
2019-02-28T04:56:49.176Z,75.43
2019-02-28T04:59:19.627Z,80.63
2019-02-28T05:01:48.555Z,76.73
2019-02-28T05:04:23.154Z,74.67
2019-02-28T05:06:52.218Z,73.33
2019-02-28T05:09:22.620Z,75.03
2019-02-28T05:11:51.640Z,77.70
2019-02-28T05:14:23.642Z,75.03
2019-02-28T05:16:53.564Z,79.90
2019-02-28T05:19:22.562Z,82.20
2019-02-28T05:21:53.539Z,84.93
2019-02-28T05:24:22.438Z,79.37
2019-02-28T05:26:51.920Z,79.37
2019-02-28T05:29:21.284Z,80.93
2019-02-28T05:31:50.199Z,80.77
2019-02-28T05:34:20.111Z,83.73
2019-02-28T05:36:52.389Z,83.47
2019-02-28T05:39:22.626Z,88.80
2019-02-28T05:41:52.178Z,82.80
2019-02-28T05:44:22.037Z,82.17
2019-02-28T05:46:57.802Z,79.60
2019-02-28T05:49:25.230Z,79.83
2019-02-28T05:51:58.803Z,79.50
2019-02-28T05:54:24.918Z,78.23
2019-02-28T05:56:53.915Z,78.57
2019-02-28T05:59:26.000Z,75.50
2019-02-28T06:01:53.846Z,77.20
2019-02-28T06:04:22.772Z,76.63
2019-02-28T06:06:54.693Z,62.27
2019-02-28T06:11:58.292Z,61.77
2019-02-28T06:14:27.810Z,92.90
2019-02-28T06:17:05.211Z,91.87
2019-02-28T06:19:34.199Z,85.87
2019-02-28T06:22:03.133Z,70.97
2019-02-28T06:24:33.579Z,70.40
2019-02-28T06:27:03.746Z,54.07
2019-02-28T06:29:36.773Z,54.67
2019-02-28T06:32:04.611Z,55.50
2019-02-28T06:34:39.378Z,57.53
2019-02-28T06:37:07.691Z,61.47
2019-02-28T06:39:37.810Z,58.23
2019-02-28T06:42:06.927Z,63.73
2019-02-28T06:44:36.171Z,61.40
2019-02-28T06:47:08.221Z,63.77
2019-02-28T06:49:40.890Z,70.33
2019-02-28T06:52:08.251Z,64.93
2019-02-28T06:54:39.849Z,62.20
2019-02-28T06:57:14.903Z,61.57
2019-02-28T06:59:44.711Z,59.60
2019-02-28T07:02:13.728Z,61.27
2019-02-28T07:04:45.517Z,62.37
2019-02-28T07:07:13.902Z,58.83
2019-02-28T07:09:43.068Z,63.10
2019-02-28T07:12:13.303Z,65.23
2019-02-28T07:14:49.327Z,60.00
2019-02-28T07:17:16.654Z,58.23
2019-02-28T07:19:45.994Z,57.00
2019-02-28T07:22:19.725Z,58.43
2019-02-28T07:24:48.273Z,59.37
2019-02-28T07:27:17.430Z,59.60
2019-02-28T07:29:47.287Z,63.17
2019-02-28T07:32:17.356Z,59.07
2019-02-28T07:34:47.419Z,60.80
2019-02-28T07:37:19.669Z,59.73
2019-02-28T07:39:50.021Z,66.50
2019-02-28T07:42:19.070Z,65.40
2019-02-28T07:44:48.293Z,60.90
2019-02-28T07:47:18.402Z,62.50
2019-02-28T07:49:50.077Z,66.07
2019-02-28T07:52:33.501Z,62.97
2019-02-28T07:55:03.736Z,65.57
2019-02-28T07:57:34.089Z,65.03
2019-02-28T08:00:03.251Z,64.80
2019-02-28T08:05:10.475Z,70.53
2019-02-28T08:07:39.777Z,68.67
2019-02-28T08:10:15.959Z,69.07
2019-02-28T08:12:45.247Z,65.63
2019-02-28T08:15:21.175Z,72.90
2019-02-28T08:17:47.676Z,71.03
2019-02-28T08:20:17.067Z,69.30
2019-02-28T08:22:46.628Z,71.90
2019-02-28T08:25:15.635Z,75.20
2019-02-28T08:27:44.642Z,74.50
2019-02-28T08:30:16.308Z,75.17
2019-02-28T08:32:47.209Z,74.83
2019-02-28T08:35:17.386Z,76.87
2019-02-28T08:37:46.669Z,79.47
2019-02-28T08:40:19.235Z,80.13
2019-02-28T08:42:49.959Z,80.40
2019-02-28T08:45:19.603Z,82.93
2019-02-28T08:47:48.981Z,81.23
2019-02-28T08:50:20.217Z,77.70
2019-02-28T08:52:50.962Z,75.50
2019-02-28T08:55:28.139Z,76.90
2019-02-28T08:57:54.719Z,73.00
2019-02-28T09:00:22.025Z,70.47
2019-02-28T09:02:52.876Z,67.83
2019-02-28T09:05:25.508Z,63.17
2019-02-28T09:07:52.275Z,64.40
2019-02-28T09:10:21.494Z,61.60
2019-02-28T09:12:50.584Z,61.77
2019-02-28T09:15:19.876Z,62.93
2019-02-28T09:17:48.758Z,63.63
2019-02-28T09:20:17.851Z,62.03
2019-02-28T09:22:46.923Z,58.47
2019-02-28T09:25:21.536Z,59.73
2019-02-28T09:27:49.725Z,59.07
2019-02-28T09:30:26.571Z,58.57
2019-02-28T09:32:55.526Z,60.80
2019-02-28T09:35:24.525Z,56.50
2019-02-28T09:37:53.628Z,56.23
2019-02-28T09:40:25.716Z,55.57
2019-02-28T09:42:54.221Z,54.87
2019-02-28T09:45:23.174Z,54.30
2019-02-28T09:47:52.156Z,56.00
2019-02-28T09:50:22.472Z,57.00
2019-02-28T09:52:52.138Z,57.67
2019-02-28T09:55:21.167Z,57.07
2019-02-28T09:57:53.302Z,54.70
2019-02-28T10:00:21.790Z,56.47
2019-02-28T10:02:52.971Z,55.73
2019-02-28T10:05:22.398Z,55.97
2019-02-28T10:07:51.750Z,56.50
2019-02-28T10:10:22.000Z,58.87
2019-02-28T10:12:51.007Z,56.73
2019-02-28T10:15:20.418Z,54.07
2019-02-28T10:17:50.699Z,60.50
2019-02-28T10:20:27.200Z,59.53
2019-02-28T10:22:55.109Z,57.67
2019-02-28T10:25:24.578Z,56.83
2019-02-28T10:27:54.658Z,56.83
2019-02-28T10:30:31.700Z,59.73
2019-02-28T10:32:57.092Z,60.50
2019-02-28T10:35:26.396Z,60.57
2019-02-28T10:37:58.433Z,62.60
2019-02-28T10:40:26.544Z,60.93
2019-02-28T10:42:56.756Z,60.43
2019-02-28T10:45:26.042Z,60.90
2019-02-28T10:47:55.942Z,64.03
2019-02-28T10:50:26.011Z,63.33
2019-02-28T10:52:55.521Z,65.53
2019-02-28T10:55:24.473Z,64.93
2019-02-28T10:57:53.400Z,67.53
2019-02-28T11:00:32.743Z,64.50
2019-02-28T11:03:02.579Z,64.73
2019-02-28T11:05:32.952Z,66.67
2019-02-28T11:08:02.774Z,69.80
2019-02-28T11:10:37.138Z,70.07
2019-02-28T11:13:08.331Z,67.80
2019-02-28T11:15:37.803Z,68.83
2019-02-28T11:18:11.888Z,62.97
2019-02-28T11:20:41.175Z,68.10
2019-02-28T11:23:14.556Z,67.17
2019-02-28T11:25:43.098Z,68.43
2019-02-28T11:28:13.783Z,66.20
2019-02-28T11:30:45.465Z,63.90
2019-02-28T11:33:14.966Z,53.27
2019-02-28T11:35:44.682Z,43.23
2019-02-28T11:38:17.498Z,44.77
2019-02-28T11:40:45.135Z,42.23
2019-02-28T11:43:14.690Z,44.13
2019-02-28T11:45:44.984Z,43.10
2019-02-28T11:48:18.932Z,48.97
2019-02-28T11:50:45.668Z,56.02
2019-02-28T11:53:15.258Z,56.90
2019-02-28T11:55:44.265Z,51.00
2019-02-28T11:58:16.895Z,47.08
2019-02-28T12:00:44.875Z,46.63
2019-02-28T12:03:15.378Z,41.03
2019-02-28T12:05:50.098Z,40.43
2019-02-28T12:08:16.082Z,39.15
2019-02-28T12:10:45.618Z,36.23
2019-02-28T12:13:16.571Z,38.65
2019-02-28T12:15:47.197Z,38.20
2019-02-28T12:18:19.938Z,39.33
2019-02-28T12:20:49.619Z,41.88
2019-02-28T12:23:22.900Z,45.60
2019-02-28T12:25:50.666Z,49.77
2019-02-28T12:28:19.677Z,45.28
2019-02-28T12:30:49.251Z,43.10
2019-02-28T12:33:22.194Z,44.88
2019-02-28T12:35:49.420Z,48.38
2019-02-28T12:38:19.706Z,51.13
2019-02-28T12:40:49.555Z,52.50
2019-02-28T12:43:19.082Z,55.38
2019-02-28T12:45:48.559Z,53.85
2019-02-28T12:48:18.154Z,53.52
2019-02-28T12:50:48.147Z,53.37
2019-02-28T12:53:17.830Z,53.20
2019-02-28T12:55:47.561Z,55.45
2019-02-28T12:58:17.097Z,57.90
2019-02-28T13:00:46.207Z,54.33
2019-02-28T13:03:19.448Z,55.63
2019-02-28T13:05:49.282Z,47.73
2019-02-28T13:08:22.815Z,52.43
2019-02-28T13:10:51.786Z,49.60
2019-02-28T13:13:27.517Z,48.93
2019-02-28T13:15:53.417Z,43.83
2019-02-28T13:18:26.292Z,42.53
2019-02-28T13:20:55.281Z,27.70
2019-02-28T13:23:24.578Z,30.00
2019-02-28T13:25:59.134Z,27.53
2019-02-28T13:28:25.449Z,28.73
2019-02-28T13:30:55.983Z,26.87
2019-02-28T13:33:26.040Z,27.43
2019-02-28T13:35:55.034Z,22.93
2019-02-28T13:38:23.955Z,24.50
2019-02-28T13:40:55.136Z,25.10
2019-02-28T13:43:24.029Z,25.50
2019-02-28T13:45:56.419Z,24.47
2019-02-28T13:48:29.980Z,22.47
2019-02-28T13:50:59.401Z,20.47
2019-02-28T13:53:30.857Z,19.43
2019-02-28T13:55:58.525Z,19.60
2019-02-28T13:58:28.058Z,16.83
2019-02-28T14:00:58.410Z,16.93
2019-02-28T14:03:27.374Z,15.07
2019-02-28T14:05:56.955Z,16.60
2019-02-28T14:08:29.364Z,15.10
2019-02-28T14:10:58.356Z,14.47
2019-02-28T14:13:29.951Z,13.90
2019-02-28T14:15:58.714Z,12.70
2019-02-28T14:18:27.922Z,12.33
2019-02-28T14:20:59.534Z,13.03
2019-02-28T14:23:30.858Z,12.23
2019-02-28T14:26:00.086Z,10.03
2019-02-28T14:28:29.054Z,8.07
2019-02-28T14:30:58.791Z,9.27
2019-02-28T14:33:28.340Z,8.97
2019-02-28T14:38:39.300Z,8.83
2019-02-28T14:41:11.400Z,7.90
2019-02-28T14:43:40.301Z,8.17
2019-02-28T14:46:10.173Z,9.93
2019-02-28T14:48:39.934Z,8.97
2019-02-28T14:51:09.669Z,8.77
2019-02-28T14:53:38.555Z,7.97
2019-02-28T14:56:08.653Z,6.27
2019-02-28T14:58:37.977Z,6.40
2019-02-28T15:01:09.139Z,6.23
2019-02-28T15:03:38.165Z,6.87
2019-02-28T15:06:07.412Z,6.30
2019-02-28T15:08:36.631Z,6.40
2019-02-28T15:11:06.448Z,5.27
2019-02-28T15:13:36.572Z,5.13
2019-02-28T15:16:05.608Z,5.43
2019-02-28T15:18:34.519Z,5.10
2019-02-28T15:23:38.912Z,5.57
2019-02-28T15:26:08.112Z,5.60
2019-02-28T15:28:38.578Z,5.20
2019-02-28T15:31:08.618Z,4.70
2019-02-28T15:33:38.568Z,5.27
2019-02-28T15:36:07.689Z,4.13
2019-02-28T15:38:37.038Z,4.70
2019-02-28T15:41:06.438Z,4.50
2019-02-28T15:43:37.475Z,4.83
2019-02-28T15:46:08.598Z,4.53
2019-02-28T15:48:37.702Z,4.93
2019-02-28T15:51:07.579Z,5.07
2019-02-28T15:53:37.295Z,4.30
2019-02-28T15:56:13.304Z,4.93
2019-02-28T15:58:41.218Z,4.30
2019-02-28T16:01:11.770Z,4.90
2019-02-28T16:03:43.681Z,4.33
2019-02-28T16:06:16.135Z,4.10
2019-02-28T16:08:46.852Z,5.07
2019-02-28T16:11:14.905Z,4.77
2019-02-28T16:13:43.860Z,4.30
2019-02-28T16:16:12.846Z,4.27
2019-02-28T16:18:47.344Z,4.50
2019-02-28T16:21:16.054Z,4.33
2019-02-28T16:23:44.920Z,4.00
2019-02-28T16:26:14.904Z,4.27
2019-02-28T16:28:43.888Z,4.33
2019-02-28T16:31:13.548Z,4.57
2019-02-28T16:33:42.971Z,4.97
2019-02-28T16:36:11.953Z,4.10
2019-02-28T16:38:42.456Z,5.23
2019-02-28T16:41:12.454Z,5.10
2019-02-28T16:43:41.589Z,5.37
2019-02-28T16:46:15.504Z,4.80
2019-02-28T16:48:43.744Z,4.77
2019-02-28T16:51:13.807Z,4.80
2019-02-28T16:53:42.854Z,6.57
2019-02-28T16:56:11.890Z,5.27
2019-02-28T16:58:41.899Z,5.63
2019-02-28T17:01:11.263Z,5.20
2019-02-28T17:03:41.699Z,5.67
2019-02-28T17:06:11.952Z,6.47
2019-02-28T17:09:04.782Z,6.23
2019-02-28T17:11:36.889Z,5.40
2019-02-28T17:14:16.269Z,5.57
2019-02-28T17:17:13.661Z,5.33
2019-02-28T17:22:18.068Z,4.90
2019-02-28T17:24:49.876Z,6.13
2019-02-28T17:27:24.287Z,5.00
2019-02-28T17:30:09.788Z,6.60
2019-02-28T17:32:38.768Z,5.80
2019-02-28T17:35:11.571Z,6.17
2019-02-28T17:37:40.437Z,5.53
2019-02-28T17:40:09.569Z,6.47
2019-02-28T17:42:41.955Z,5.67
2019-02-28T17:45:16.242Z,6.10
2019-02-28T17:48:31.813Z,6.33
2019-02-28T17:51:30.851Z,5.60
2019-02-28T17:54:36.288Z,6.30
2019-02-28T17:57:29.681Z,5.97
2019-02-28T18:00:53.722Z,5.80
2019-02-28T18:03:48.469Z,7.40
2019-02-28T18:07:02.317Z,5.97
2019-02-28T18:10:03.055Z,5.70
2019-02-28T18:12:54.268Z,4.67
2019-02-28T18:15:35.769Z,4.77
2019-02-28T18:19:04.768Z,6.33
2019-02-28T18:22:17.600Z,6.07
2019-02-28T18:25:17.219Z,7.30
2019-02-28T18:28:15.459Z,7.03
2019-02-28T18:31:19.080Z,7.50
2019-02-28T18:34:00.362Z,7.20
2019-02-28T18:36:30.983Z,6.80
2019-02-28T18:39:00.059Z,7.07
2019-02-28T18:41:29.063Z,6.33
2019-02-28T18:44:00.056Z,6.77
2019-02-28T18:46:29.815Z,6.57
2019-02-28T18:49:07.161Z,6.60
2019-02-28T18:51:35.981Z,6.93
2019-02-28T18:54:05.007Z,7.00
2019-02-28T18:56:34.385Z,7.87
2019-02-28T18:59:03.839Z,7.70
2019-02-28T19:01:33.239Z,8.00
2019-02-28T19:04:02.667Z,8.63
2019-02-28T19:06:32.084Z,7.73
2019-02-28T19:09:01.487Z,7.73
2019-02-28T19:11:34.565Z,7.43
2019-02-28T19:14:03.581Z,8.37
2019-02-28T19:16:32.582Z,7.90
2019-02-28T19:19:01.701Z,6.43
2019-02-28T19:21:30.828Z,7.30
2019-02-28T19:24:00.567Z,7.43
2019-02-28T19:26:29.909Z,7.83
2019-02-28T19:28:59.362Z,7.90
2019-02-28T19:31:28.943Z,7.10
2019-02-28T19:33:58.566Z,7.63
2019-02-28T19:36:27.823Z,7.87
2019-02-28T19:38:56.982Z,9.10
2019-02-28T19:41:28.437Z,8.87
2019-02-28T19:43:57.654Z,9.17
2019-02-28T19:46:26.854Z,9.73
2019-02-28T19:48:55.911Z,10.77
2019-02-28T19:51:25.127Z,11.40
2019-02-28T19:53:54.101Z,11.60
2019-02-28T19:56:23.268Z,12.13
2019-02-28T19:58:52.630Z,12.77
2019-02-28T20:01:22.744Z,11.60
2019-02-28T20:03:51.953Z,11.73
2019-02-28T20:06:21.491Z,11.80
2019-02-28T20:08:50.841Z,11.60
2019-02-28T20:11:20.027Z,11.50
2019-02-28T20:13:49.105Z,11.37
2019-02-28T20:16:18.525Z,10.13
2019-02-28T20:18:47.972Z,11.03
2019-02-28T20:21:17.175Z,10.97
2019-02-28T20:23:47.430Z,11.23
2019-02-28T20:26:17.592Z,10.07
2019-02-28T20:28:49.219Z,10.67
2019-02-28T20:31:17.977Z,11.43
2019-02-28T20:33:50.851Z,11.67
2019-02-28T20:36:21.295Z,10.83
2019-02-28T20:38:50.887Z,11.47
2019-02-28T20:41:26.673Z,10.70
2019-02-28T20:43:58.996Z,10.73
2019-02-28T20:46:28.469Z,11.40
2019-02-28T20:48:58.023Z,11.93
2019-02-28T20:51:27.040Z,10.80
2019-02-28T20:53:56.128Z,13.50
2019-02-28T20:56:25.266Z,12.07
2019-02-28T20:58:56.378Z,13.33
2019-02-28T21:01:27.464Z,13.10
2019-02-28T21:03:57.321Z,14.30
2019-02-28T21:06:26.294Z,13.23
2019-02-28T21:08:57.209Z,13.10
2019-02-28T21:11:26.808Z,13.73
2019-02-28T21:13:55.796Z,13.87
2019-02-28T21:16:30.359Z,14.80
2019-02-28T21:18:59.401Z,13.00
2019-02-28T21:21:28.422Z,13.80
2019-02-28T21:23:57.474Z,15.70
2019-02-28T21:26:27.366Z,14.07
2019-02-28T21:28:56.875Z,14.30
2019-02-28T21:31:26.014Z,14.87
2019-02-28T21:33:55.490Z,14.30
2019-02-28T21:36:24.507Z,13.83
2019-02-28T21:38:53.561Z,13.57
2019-02-28T21:41:22.584Z,14.50
2019-02-28T21:43:51.663Z,14.10
2019-02-28T21:46:21.034Z,13.83
2019-02-28T21:48:50.945Z,13.50
2019-02-28T21:51:23.120Z,12.03
2019-02-28T21:53:52.119Z,10.47
2019-02-28T21:56:21.180Z,10.23
2019-02-28T21:58:50.694Z,9.77
2019-02-28T22:01:19.813Z,10.13
2019-02-28T22:03:48.901Z,11.07
2019-02-28T22:06:18.328Z,11.53
2019-02-28T22:08:48.670Z,11.20
2019-02-28T22:11:19.018Z,11.13
2019-02-28T22:13:51.136Z,11.47
2019-02-28T22:16:21.819Z,12.23
2019-02-28T22:18:53.846Z,11.60
2019-02-28T22:21:23.096Z,13.13
2019-02-28T22:23:52.248Z,11.70
2019-02-28T22:26:21.939Z,11.47
2019-02-28T22:28:51.273Z,11.83
2019-02-28T22:31:45.166Z,12.90
2019-02-28T22:34:23.097Z,14.40
2019-02-28T22:36:52.379Z,13.13
2019-02-28T22:39:24.610Z,15.20
2019-02-28T22:41:53.872Z,13.90
2019-02-28T22:44:22.834Z,15.77
2019-02-28T22:46:52.076Z,15.83
2019-02-28T22:49:21.367Z,15.77
2019-02-28T22:51:50.735Z,16.30
2019-02-28T22:54:19.810Z,16.20
2019-02-28T22:56:48.789Z,17.33
2019-02-28T22:59:17.939Z,16.40
2019-02-28T23:01:49.302Z,17.13
2019-02-28T23:04:22.110Z,16.87
2019-02-28T23:06:51.087Z,15.63
2019-02-28T23:09:20.174Z,17.53
2019-02-28T23:11:52.484Z,18.23
2019-02-28T23:14:21.495Z,18.53
2019-02-28T23:16:50.510Z,18.83
2019-02-28T23:21:54.416Z,20.77
2019-02-28T23:24:26.171Z,21.27
2019-02-28T23:27:13.404Z,21.77
2019-02-28T23:29:57.660Z,23.10
2019-02-28T23:32:40.178Z,23.67
2019-02-28T23:35:13.623Z,28.60
2019-02-28T23:37:43.281Z,27.27
2019-02-28T23:40:12.725Z,30.53
2019-02-28T23:42:41.635Z,33.27
2019-02-28T23:45:14.159Z,34.13
2019-02-28T23:47:43.501Z,36.60
2019-02-28T23:50:12.705Z,37.10
2019-02-28T23:52:42.014Z,39.83
2019-02-28T23:55:11.822Z,52.00
2019-02-28T23:57:40.757Z,63.13
